General Aviation Weather

Text Reports

Enter one or more of the following location identifiers separated by a space:

Zip Code, Four-Character ICAO or Three-Character IATA airport codes.

METAR - Aviation Routine Weather Report
KAJO - Corona, California
Updated at 10:56 AM GMT on February 09, 2016 (2:56 AM PST):
METAR KAJO 091056Z AUTO 14008KT 10SM CLR 22/M04 A3015 RMK AO2 SLP212 T02171039 $
TAF - Terminal Area Forecast
KAJO - Corona, California
Updated at 10:56 AM GMT on February 09, 2016 (2:56 AM PST):
No TAF is currently available for this location.
Decoded:
No decoded TAF is available.
PIREP - Pilot Weather Report
KAJO - Corona, California
Updated at 10:56 AM GMT on February 09, 2016 (2:56 AM PST):
No PIREP is currently available for this location.
AIRMET - Airmens Meteorological Information
KAJO - Corona, California
Updated at 10:56 AM GMT on February 09, 2016 (2:56 AM PST):
No AIRMET is currently available for this location.
SIGMET - Significant Meteorological Information
KAJO - Corona, California
Updated at 10:56 AM GMT on February 09, 2016 (2:56 AM PST):
No SIGMET is currently available for this location.
NOTAM - Notice to Airmen
KAJO - Corona, California
Updated at 10:56 AM GMT on February 09, 2016 (2:56 AM PST):
No NOTAM is currently available for this location.
Forecast Area
KAJO - Corona, California
Updated at 10:56 AM GMT on February 09, 2016 (2:56 AM PST):
No NOTAM is currently available for this location.
Aviation Weather Maps